Time;durP1;ratioP1;P1;durP2;ratioP2;P2;SDS_P1;SDS_P2;PMS_P1;PMS_P2;Temp;Humidity;BMP_temperature;BMP_pressure;BME280_temperature;BME280_humidity;BME280_pressure;Samples;Min_cycle;Max_cycle;Signal;HPM_P1;HPM_P2
2022/07/16 00:01:26;;;;;;;3.63;1.73;;;;;;;18.10;100.00;102073.28;4875836;29;20060;-66
2022/07/16 00:03:54;;;;;;;3.63;1.80;;;;;;;18.14;97.23;102068.47;4885297;29;20112;-65
2022/07/16 00:06:22;;;;;;;4.45;1.55;;;;;;;18.12;97.24;102067.81;4883231;29;20421;-65
2022/07/16 00:08:50;;;;;;;4.03;1.40;;;;;;;18.15;96.41;102063.00;4880137;29;20307;-65
2022/07/16 00:11:16;;;;;;;3.00;1.38;;;;;;;18.16;97.65;102069.16;4882480;29;20468;-65
2022/07/16 00:13:44;;;;;;;4.18;1.90;;;;;;;18.13;100.00;102064.16;4879605;29;20553;-66
2022/07/16 00:16:11;;;;;;;3.85;1.80;;;;;;;18.14;98.65;102068.47;4887308;29;20059;-66
2022/07/16 00:21:23;;;;;;;5.00;1.75;;;;;;;18.11;98.35;102063.50;4883047;29;20057;-65
2022/07/16 00:23:50;;;;;;;4.05;1.70;;;;;;;18.10;99.30;102065.31;4877934;29;20322;-65
2022/07/16 00:26:17;;;;;;;7.75;1.92;;;;;;;18.13;99.33;102065.00;4876435;29;20066;-65
2022/07/16 00:28:44;;;;;;;3.90;1.63;;;;;;;18.11;99.15;102061.69;4886458;29;20076;-65
2022/07/16 00:31:11;;;;;;;5.03;1.83;;;;;;;18.14;99.54;102052.56;4878287;29;20527;-65
2022/07/16 00:33:38;;;;;;;3.80;1.70;;;;;;;18.08;98.58;102050.56;4884971;29;20370;-66
2022/07/16 00:36:04;;;;;;;6.15;1.88;;;;;;;18.14;99.55;102057.88;4874482;29;20087;-65
2022/07/16 00:38:31;;;;;;;4.75;2.05;;;;;;;18.20;98.74;102053.72;4880880;29;20135;-65
2022/07/16 00:40:58;;;;;;;4.25;1.92;;;;;;;18.19;99.47;102055.56;4886267;29;20057;-65
2022/07/16 00:43:24;;;;;;;4.43;2.38;;;;;;;18.17;99.38;102063.69;4878111;29;20057;-64
2022/07/16 00:45:51;;;;;;;4.97;2.30;;;;;;;18.18;99.70;102057.34;4886805;29;20072;-65
2022/07/16 00:48:17;;;;;;;6.10;2.63;;;;;;;18.19;99.90;102058.22;4869318;29;20056;-65
2022/07/16 00:50:44;;;;;;;4.00;2.65;;;;;;;18.19;100.00;102058.22;4881615;29;20459;-65
2022/07/16 00:53:11;;;;;;;4.65;2.65;;;;;;;18.22;100.00;102057.03;4881749;29;20446;-65
2022/07/16 00:55:38;;;;;;;6.22;2.60;;;;;;;18.17;100.00;102055.72;4878627;29;20053;-65
2022/07/16 00:58:05;;;;;;;6.13;2.67;;;;;;;18.13;100.00;102054.38;4886324;29;20052;-65
2022/07/16 01:00:31;;;;;;;5.25;2.72;;;;;;;18.13;100.00;102054.38;4878188;29;20053;-65
2022/07/16 01:02:59;;;;;;;7.82;2.80;;;;;;;18.11;100.00;102052.88;4886254;29;20175;-65
2022/07/16 01:05:26;;;;;;;3.72;2.75;;;;;;;18.08;100.00;102048.72;4872598;29;20049;-65
2022/07/16 01:07:53;;;;;;;7.57;3.30;;;;;;;18.08;100.00;102058.53;4883216;29;20438;-65
2022/07/16 01:10:21;;;;;;;4.35;2.85;;;;;;;18.07;100.00;102052.41;4885842;29;20056;-65
2022/07/16 01:12:59;;;;;;;5.43;2.67;;;;;;;18.11;100.00;102058.19;4878793;29;20056;-65
2022/07/16 01:15:25;;;;;;;6.07;2.78;;;;;;;18.09;100.00;102050.41;4885906;29;20052;-65
2022/07/16 01:17:53;;;;;;;7.35;3.13;;;;;;;18.10;100.00;102049.41;4874277;29;20062;-65
2022/07/16 01:20:20;;;;;;;6.28;2.85;;;;;;;18.10;100.00;102052.06;4881098;29;20069;-64
2022/07/16 01:22:51;;;;;;;4.85;2.88;;;;;;;18.00;100.00;102046.09;4879536;29;20248;-65
2022/07/16 01:25:18;;;;;;;6.40;2.95;;;;;;;18.01;100.00;102045.06;4884791;29;20052;-65
2022/07/16 01:27:44;;;;;;;4.57;3.20;;;;;;;18.00;100.00;102038.13;4887766;29;20044;-64
2022/07/16 01:30:11;;;;;;;4.35;3.17;;;;;;;18.01;100.00;102045.06;4860523;29;20072;-65
2022/07/16 01:32:38;;;;;;;6.25;3.40;;;;;;;18.01;100.00;102039.75;4882589;29;20060;-64
2022/07/16 01:35:06;;;;;;;3.92;3.08;;;;;;;18.04;100.00;102049.25;4871441;29;20272;-64
2022/07/16 01:37:32;;;;;;;5.05;3.22;;;;;;;18.06;100.00;102040.09;4886005;29;20049;-65
2022/07/16 01:39:59;;;;;;;5.05;3.03;;;;;;;18.11;100.00;102044.91;4876151;29;20576;-65
2022/07/16 01:42:26;;;;;;;8.05;3.50;;;;;;;18.12;100.00;102038.63;4870699;29;20449;-65
2022/07/16 01:44:52;;;;;;;7.43;2.85;;;;;;;18.12;100.00;102044.75;4885755;29;20048;-65
2022/07/16 01:47:19;;;;;;;6.40;3.08;;;;;;;18.11;100.00;102040.44;4871532;29;20407;-64
2022/07/16 01:49:45;;;;;;;6.38;3.08;;;;;;;18.12;100.00;102044.75;4885060;29;20048;-64
2022/07/16 01:52:18;;;;;;;6.28;3.22;;;;;;;18.13;100.00;102046.41;4877624;29;20072;-64
2022/07/16 01:54:51;;;;;;;5.38;3.10;;;;;;;18.08;100.00;102045.25;4886093;29;20059;-64
2022/07/16 01:57:19;;;;;;;6.28;2.80;;;;;;;18.11;100.00;102044.91;4884704;29;20351;-65
2022/07/16 01:59:46;;;;;;;5.70;3.05;;;;;;;18.08;100.00;102042.59;4872610;29;20394;-64
2022/07/16 02:02:13;;;;;;;4.43;2.88;;;;;;;18.10;100.00;102040.59;4879953;29;20060;-64
2022/07/16 02:04:41;;;;;;;6.90;3.10;;;;;;;18.08;100.00;102031.97;4877571;29;20056;-64
2022/07/16 02:07:08;;;;;;;5.57;3.10;;;;;;;18.04;100.00;102039.44;4884303;29;20480;-64
2022/07/16 02:09:34;;;;;;;5.22;3.00;;;;;;;18.07;100.00;102043.59;4878954;29;20898;-65
2022/07/16 02:12:02;;;;;;;8.05;3.08;;;;;;;18.06;100.00;102040.09;4884903;29;20459;-65
2022/07/16 02:14:28;;;;;;;6.20;2.50;;;;;;;18.11;100.00;102031.63;4883094;29;20498;-65
2022/07/16 02:16:55;;;;;;;4.68;2.60;;;;;;;18.15;100.00;102035.59;4877324;29;20088;-65
2022/07/16 02:19:21;;;;;;;4.18;2.70;;;;;;;18.19;100.00;102036.97;4886245;29;20491;-65
2022/07/16 02:21:48;;;;;;;7.25;3.00;;;;;;;18.21;100.00;102036.78;4875056;29;20736;-64
2022/07/16 02:24:14;;;;;;;6.95;2.80;;;;;;;18.18;100.00;102033.44;4880546;29;20430;-65
2022/07/16 02:26:41;;;;;;;7.95;3.03;;;;;;;18.15;100.00;102025.84;4882483;29;20428;-65
2022/07/16 02:29:07;;;;;;;7.18;3.25;;;;;;;18.18;100.00;102030.78;4879030;29;20457;-65
2022/07/16 02:31:39;;;;;;;4.80;2.60;;;;;;;18.16;100.00;102029.31;4881907;29;20120;-65
2022/07/16 02:34:05;;;;;;;5.43;2.83;;;;;;;18.12;100.00;102030.66;4877260;29;20052;-65
2022/07/16 02:36:32;;;;;;;5.18;2.33;;;;;;;18.13;100.00;102025.19;4873975;29;20646;-65
2022/07/16 02:38:58;;;;;;;7.30;2.88;;;;;;;18.14;100.00;102032.13;4850258;29;20052;-64
2022/07/16 02:41:25;;;;;;;4.80;2.80;;;;;;;18.02;100.00;102022.84;4884055;29;20060;-66
2022/07/16 02:43:51;;;;;;;7.78;2.60;;;;;;;18.09;100.00;102034.47;4884812;29;20059;-65
2022/07/16 02:46:18;;;;;;;6.03;2.63;;;;;;;18.13;100.00;102037.59;4877388;29;20429;-65
2022/07/16 02:48:44;;;;;;;5.35;2.60;;;;;;;18.13;100.00;102035.81;4884699;29;20049;-65
2022/07/16 02:51:11;;;;;;;6.43;2.90;;;;;;;18.10;100.00;102043.25;4851552;29;20059;-65
2022/07/16 02:53:37;;;;;;;7.00;3.10;;;;;;;18.05;100.00;102038.44;4879659;29;20095;-65
2022/07/16 02:56:04;;;;;;;5.72;3.00;;;;;;;17.98;100.00;102030.31;4877536;29;20067;-65
2022/07/16 02:58:31;;;;;;;4.85;3.00;;;;;;;17.95;100.00;102030.66;4884667;29;20059;-65
2022/07/16 03:00:58;;;;;;;5.93;2.92;;;;;;;17.92;100.00;102032.81;4885694;29;20668;-65
2022/07/16 03:03:24;;;;;;;3.80;2.75;;;;;;;17.90;100.00;102040.94;4878700;29;20063;-64
2022/07/16 03:05:51;;;;;;;6.90;3.10;;;;;;;17.88;100.00;102037.63;4880005;29;20045;-64
2022/07/16 03:08:17;;;;;;;5.03;2.42;;;;;;;17.88;100.00;102039.44;4871675;29;20055;-65
2022/07/16 03:10:44;;;;;;;5.32;2.83;;;;;;;17.86;100.00;102044.09;4885040;29;20052;-65
2022/07/16 03:13:10;;;;;;;6.88;3.35;;;;;;;17.86;100.00;102044.09;4883318;29;20565;-64
2022/07/16 03:15:37;;;;;;;6.63;2.92;;;;;;;17.79;100.00;102044.69;4875913;29;20064;-64
2022/07/16 03:18:03;;;;;;;6.63;3.42;;;;;;;17.83;100.00;102039.88;4883071;29;20315;-65
2022/07/16 03:20:30;;;;;;;5.20;2.83;;;;;;;17.83;100.00;102041.72;4869556;29;20071;-65
2022/07/16 03:22:57;;;;;;;5.78;2.88;;;;;;;17.85;100.00;102051.19;4884168;29;20067;-65
2022/07/16 03:25:23;;;;;;;6.32;2.55;;;;;;;17.83;100.00;102050.50;4876574;29;20059;-65
2022/07/16 03:27:50;;;;;;;5.60;3.17;;;;;;;17.76;100.00;102058.31;4883757;29;20072;-65
2022/07/16 03:30:17;;;;;;;5.57;3.15;;;;;;;17.75;100.00;102061.94;4883662;29;20061;-65
2022/07/16 03:32:44;;;;;;;5.93;2.95;;;;;;;17.72;100.00;102059.63;4871474;29;20064;-65
2022/07/16 03:35:11;;;;;;;6.05;3.00;;;;;;;17.74;100.00;102070.91;4876426;29;20052;-64
2022/07/16 03:40:25;;;;;;;8.00;3.60;;;;;;;17.75;100.00;102061.13;4885186;29;20057;-64
2022/07/16 03:42:52;;;;;;;7.03;3.17;;;;;;;17.76;100.00;102063.63;4881147;29;20096;-65
2022/07/16 03:45:19;;;;;;;8.27;3.70;;;;;;;17.72;100.00;102072.03;4879212;29;20139;-64
2022/07/16 03:47:45;;;;;;;7.00;3.25;;;;;;;17.73;100.00;102081.69;4881470;29;20730;-65
2022/07/16 03:50:12;;;;;;;5.38;3.17;;;;;;;17.70;100.00;102077.53;4877823;29;20151;-65
2022/07/16 03:52:43;;;;;;;8.57;3.45;;;;;;;17.69;100.00;102073.22;4887930;29;20582;-64
2022/07/16 03:55:10;;;;;;;7.38;3.38;;;;;;;17.71;100.00;102081.84;4879482;29;20506;-65
2022/07/16 03:57:37;;;;;;;6.85;3.63;;;;;;;17.67;100.00;102083.16;4887228;29;20581;-65
2022/07/16 04:00:04;;;;;;;8.25;4.20;;;;;;;17.63;100.00;102079.19;4883098;29;20074;-65
2022/07/16 04:02:31;;;;;;;6.18;3.75;;;;;;;17.66;100.00;102080.66;4874435;29;20060;-65
2022/07/16 04:04:57;;;;;;;6.90;3.95;;;;;;;17.64;100.00;102088.81;4886731;29;20139;-65
2022/07/16 04:07:24;;;;;;;8.63;4.20;;;;;;;17.63;100.00;102088.97;4878793;29;20053;-65
2022/07/16 04:09:50;;;;;;;11.32;4.53;;;;;;;17.61;100.00;102105.03;4887725;29;20081;-65
2022/07/16 04:12:16;;;;;;;6.88;3.97;;;;;;;17.59;100.00;102094.56;4879116;29;20326;-65
2022/07/16 04:14:43;;;;;;;6.38;3.72;;;;;;;17.58;100.00;102105.34;4878599;29;20048;-65
2022/07/16 04:17:09;;;;;;;8.85;4.07;;;;;;;17.61;100.00;102104.22;4885340;29;20052;-64
2022/07/16 04:19:36;;;;;;;6.60;3.70;;;;;;;17.63;100.00;102107.53;4862010;29;20497;-64
2022/07/16 04:22:03;;;;;;;8.43;4.40;;;;;;;17.66;100.00;102104.53;4887580;29;20060;-64
2022/07/16 04:24:29;;;;;;;8.00;4.28;;;;;;;17.66;100.00;102110.69;4878727;29;20053;-63
2022/07/16 04:26:55;;;;;;;8.70;4.18;;;;;;;17.66;100.00;102110.69;4882639;29;20059;-64
2022/07/16 04:29:22;;;;;;;7.60;3.72;;;;;;;17.69;100.00;102114.84;4880978;29;20054;-64
2022/07/16 04:31:48;;;;;;;7.28;3.72;;;;;;;17.71;100.00;102124.28;4879538;29;20516;-64
2022/07/16 04:34:15;;;;;;;7.53;3.92;;;;;;;17.72;100.00;102117.16;4885662;29;20044;-64
2022/07/16 04:36:42;;;;;;;7.60;3.50;;;;;;;17.73;100.00;102121.50;4879489;29;20577;-65
2022/07/16 04:39:09;;;;;;;6.63;3.30;;;;;;;17.73;100.00;102135.56;4886466;29;20053;-64
2022/07/16 04:41:35;;;;;;;9.00;3.53;;;;;;;17.77;100.00;102134.25;4879403;29;20052;-64
2022/07/16 04:44:01;;;;;;;6.55;3.15;;;;;;;17.84;100.00;102130.97;4876914;29;20052;-64
2022/07/16 04:46:28;;;;;;;8.52;3.13;;;;;;;17.89;100.00;102132.16;4885881;29;20048;-64
2022/07/16 04:48:54;;;;;;;5.25;3.58;;;;;;;17.87;100.00;102130.66;4878438;29;20441;-64
2022/07/16 04:51:21;;;;;;;7.43;2.85;;;;;;;17.90;100.00;102127.72;4885625;29;20147;-64
2022/07/16 04:53:47;;;;;;;9.70;3.15;;;;;;;17.94;100.00;102137.81;4878867;29;20053;-64
2022/07/16 04:56:14;;;;;;;11.50;3.25;;;;;;;17.98;100.00;102138.34;4879181;29;20131;-64
2022/07/16 04:58:40;;;;;;;8.63;2.90;;;;;;;17.98;100.00;102146.31;4883843;29;20056;-64
2022/07/16 05:01:07;;;;;;;9.40;3.00;;;;;;;17.96;100.00;102143.81;4879057;29;20371;-65
2022/07/16 05:03:33;;;;;;;6.93;2.90;;;;;;;17.94;100.00;102145.78;4886476;29;20533;-65
2022/07/16 05:06:00;;;;;;;6.28;2.95;;;;;;;17.97;100.00;102134.00;4878078;29;20568;-65
2022/07/16 05:08:26;;;;;;;5.35;3.00;;;;;;;18.02;100.00;102141.50;4882330;29;20052;-65
2022/07/16 05:10:53;;;;;;;7.45;2.50;;;;;;;18.08;100.00;102149.63;4881446;29;20064;-65
2022/07/16 05:13:19;;;;;;;5.82;2.47;;;;;;;18.12;100.00;102148.31;4877430;29;20057;-65
2022/07/16 05:15:46;;;;;;;5.30;2.63;;;;;;;18.21;100.00;102154.47;4885619;29;20057;-65
2022/07/16 05:18:12;;;;;;;5.18;2.33;;;;;;;18.25;100.00;102153.16;4877964;29;20403;-65
2022/07/16 05:20:39;;;;;;;7.65;2.85;;;;;;;18.17;100.00;102156.63;4886764;29;20223;-65
2022/07/16 05:23:05;;;;;;;7.45;2.20;;;;;;;18.20;100.00;102159.94;4874254;29;20087;-65
2022/07/16 05:25:32;;;;;;;4.63;2.50;;;;;;;18.14;100.00;102159.59;4884698;29;20048;-65
2022/07/16 05:27:58;;;;;;;7.30;2.40;;;;;;;18.14;100.00;102164.06;4885787;29;20520;-63
2022/07/16 05:30:25;;;;;;;5.28;2.40;;;;;;;18.15;100.00;102161.25;4877304;29;20521;-64
2022/07/16 05:32:51;;;;;;;7.00;2.67;;;;;;;18.15;100.00;102158.63;4886548;29;20053;-64
2022/07/16 05:35:18;;;;;;;6.50;2.72;;;;;;;18.15;100.00;102163.91;4870858;29;20501;-64
2022/07/16 05:37:44;;;;;;;11.05;2.80;;;;;;;18.13;100.00;102165.06;4881314;29;20063;-65
2022/07/16 05:40:12;;;;;;;8.77;2.40;;;;;;;18.15;100.00;102165.72;4885042;29;20418;-64
2022/07/16 05:42:38;;;;;;;3.55;2.30;;;;;;;18.13;100.00;102173.03;4881701;29;20070;-64
2022/07/16 05:45:13;;;;;;;7.03;2.72;;;;;;;18.17;100.00;102183.19;4886557;29;20565;-64
2022/07/16 05:47:39;;;;;;;4.03;2.22;;;;;;;18.20;100.00;102174.03;4878792;29;20176;-64
2022/07/16 05:50:07;;;;;;;7.47;2.72;;;;;;;18.25;100.00;102178.84;4878580;29;20063;-65
2022/07/16 05:52:33;;;;;;;6.82;2.65;;;;;;;18.22;100.00;102177.38;4874565;29;20052;-64
2022/07/16 05:55:00;;;;;;;5.70;2.60;;;;;;;18.22;100.00;102190.63;4883875;29;20048;-64
2022/07/16 05:57:26;;;;;;;7.38;2.03;;;;;;;18.24;100.00;102186.00;4884826;29;20056;-65
2022/07/16 05:59:53;;;;;;;7.20;2.70;;;;;;;18.26;100.00;102196.47;4877704;29;20052;-64
2022/07/16 06:02:19;;;;;;;6.80;2.22;;;;;;;18.34;100.00;102196.47;4881578;29;20060;-65
2022/07/16 06:04:46;;;;;;;7.82;2.05;;;;;;;18.30;100.00;102188.00;4870424;29;20568;-64
2022/07/16 06:07:13;;;;;;;3.92;1.50;;;;;;;18.34;100.00;102189.31;4884678;29;20188;-65
2022/07/16 06:09:39;;;;;;;3.33;1.30;;;;;;;18.37;100.00;102199.63;4878169;29;20056;-64
2022/07/16 06:12:05;;;;;;;5.25;1.73;;;;;;;18.34;100.00;102199.94;4867608;29;20103;-64
2022/07/16 06:14:32;;;;;;;6.85;1.48;;;;;;;18.30;100.00;102190.66;4868504;29;20072;-65
2022/07/16 06:16:59;;;;;;;4.78;1.83;;;;;;;18.29;100.00;102185.53;4866050;29;20379;-65
2022/07/16 06:19:25;;;;;;;2.30;1.27;;;;;;;18.32;100.00;102199.28;4878853;29;20063;-65
2022/07/16 06:21:51;;;;;;;6.72;1.60;;;;;;;18.33;100.00;102198.31;4875860;29;20134;-65
2022/07/16 06:24:18;;;;;;;3.58;1.17;;;;;;;18.34;100.00;102202.59;4884523;29;20061;-65
2022/07/16 06:26:47;;;;;;;3.50;1.48;;;;;;;18.42;100.00;102206.28;4884836;29;20048;-66
2022/07/16 06:29:15;;;;;;;3.60;1.40;;;;;;;18.42;100.00;102212.41;4880720;29;20711;-65
2022/07/16 06:31:43;;;;;;;2.85;1.40;;;;;;;18.44;100.00;102210.41;4879657;29;20084;-65
2022/07/16 06:34:10;;;;;;;6.05;1.73;;;;;;;18.47;100.00;102211.94;4875306;29;20048;-65
2022/07/16 06:36:37;;;;;;;4.80;1.58;;;;;;;18.46;100.00;102226.19;4885403;29;20052;-64
2022/07/16 06:39:04;;;;;;;4.57;1.40;;;;;;;18.40;100.00;102229.50;4877208;29;20063;-64
2022/07/16 06:41:30;;;;;;;3.33;1.40;;;;;;;18.38;100.00;102232.34;4884035;29;20056;-65
2022/07/16 06:43:57;;;;;;;4.55;1.50;;;;;;;18.43;100.00;102229.19;4882750;29;20409;-64
2022/07/16 06:46:23;;;;;;;5.43;1.50;;;;;;;18.41;100.00;102233.84;4869916;29;20693;-64
2022/07/16 06:48:51;;;;;;;3.65;1.58;;;;;;;18.45;100.00;102237.84;4883599;29;20868;-65
2022/07/16 06:51:18;;;;;;;5.13;1.58;;;;;;;18.56;100.00;102241.00;4877071;29;20052;-64
2022/07/16 06:53:44;;;;;;;3.88;1.25;;;;;;;18.56;100.00;102246.31;4885746;29;20552;-65
2022/07/16 06:56:10;;;;;;;4.50;1.30;;;;;;;18.64;100.00;102249.97;4880535;29;20055;-64
2022/07/16 06:58:37;;;;;;;7.22;1.35;;;;;;;18.68;100.00;102248.63;4875947;29;20052;-64
2022/07/16 07:01:03;;;;;;;6.30;1.35;;;;;;;18.76;100.00;102257.47;4879990;29;20063;-64
2022/07/16 07:03:30;;;;;;;6.55;1.45;;;;;;;18.82;100.00;102256.00;4876099;29;20052;-64
2022/07/16 07:05:57;;;;;;;5.10;1.30;;;;;;;18.89;100.00;102254.31;4885300;29;20052;-64
2022/07/16 07:08:23;;;;;;;5.38;1.15;;;;;;;18.89;100.00;102256.97;4877675;29;20067;-65
2022/07/16 07:10:50;;;;;;;5.63;1.02;;;;;;;18.83;100.00;102251.50;4884119;29;20138;-64
2022/07/16 07:13:16;;;;;;;5.35;1.13;;;;;;;18.83;100.00;102267.47;4879366;29;20056;-64
2022/07/16 07:15:43;;;;;;;4.57;1.10;;;;;;;18.83;100.00;102268.28;4872492;29;20386;-66
2022/07/16 07:18:09;;;;;;;4.97;1.08;;;;;;;18.81;100.00;102270.28;4883518;29;20056;-64
2022/07/16 07:20:36;;;;;;;4.35;1.20;;;;;;;18.80;100.00;102270.44;4877312;29;20060;-65
2022/07/16 07:23:02;;;;;;;4.18;1.10;;;;;;;18.76;100.00;102280.56;4868001;29;20060;-65
2022/07/16 07:25:29;;;;;;;4.95;0.88;;;;;;;18.71;100.00;102282.88;4880483;29;20537;-64
2022/07/16 07:27:55;;;;;;;4.50;0.93;;;;;;;18.71;100.00;102288.19;4876206;29;20583;-64
2022/07/16 07:30:22;;;;;;;4.53;1.30;;;;;;;18.67;99.16;102281.53;4882639;29;20064;-64
2022/07/16 07:32:48;;;;;;;5.25;1.15;;;;;;;18.71;100.00;102289.00;4876943;29;20061;-65
2022/07/16 07:35:14;;;;;;;4.60;0.90;;;;;;;18.71;97.73;102291.66;4882571;29;20049;-65
2022/07/16 07:37:41;;;;;;;2.63;0.85;;;;;;;18.71;93.97;102288.19;4874763;29;20676;-65
2022/07/16 07:40:08;;;;;;;4.78;1.00;;;;;;;18.74;94.51;102290.53;4882873;29;20052;-65
2022/07/16 07:42:34;;;;;;;5.45;0.90;;;;;;;18.80;94.38;102297.00;4877658;29;20398;-65
2022/07/16 07:45:01;;;;;;;5.65;0.85;;;;;;;18.81;92.26;102299.50;4875823;29;20049;-65
2022/07/16 07:47:28;;;;;;;2.38;0.80;;;;;;;18.85;91.45;102305.34;4883938;29;20296;-65
2022/07/16 07:49:55;;;;;;;6.28;1.00;;;;;;;18.83;90.98;102292.19;4877564;29;20083;-65
2022/07/16 07:52:22;;;;;;;4.38;1.00;;;;;;;18.86;90.63;102297.22;4883480;29;20053;-65
2022/07/16 07:54:48;;;;;;;3.45;0.98;;;;;;;18.83;86.69;102294.88;4847204;29;20053;-65
2022/07/16 07:57:14;;;;;;;2.67;0.90;;;;;;;18.77;87.85;102298.16;4872494;29;20053;-65
2022/07/16 07:59:41;;;;;;;4.53;0.93;;;;;;;18.82;87.35;102301.19;4885262;29;20592;-65
2022/07/16 08:02:07;;;;;;;4.78;1.20;;;;;;;18.82;88.49;102301.19;4873858;29;20058;-65
2022/07/16 08:04:34;;;;;;;3.90;1.10;;;;;;;18.83;87.88;102308.16;4880506;29;20048;-65
2022/07/16 08:07:01;;;;;;;3.58;1.02;;;;;;;18.86;88.08;102313.16;4876742;29;20056;-66
2022/07/16 08:09:27;;;;;;;4.72;1.10;;;;;;;18.94;87.78;102310.50;4876285;29;20555;-66
2022/07/16 08:11:54;;;;;;;4.60;1.10;;;;;;;18.95;85.01;102303.34;4883430;29;20052;-65
2022/07/16 08:14:20;;;;;;;1.90;0.80;;;;;;;19.07;89.65;102307.34;4875824;29;20060;-64
2022/07/16 08:16:53;;;;;;;3.55;1.23;;;;;;;19.07;87.12;102311.81;4884391;29;20049;-64
2022/07/16 08:19:19;;;;;;;4.40;1.00;;;;;;;19.14;86.34;102308.31;4885388;29;20091;-64
2022/07/16 08:21:45;;;;;;;2.90;1.02;;;;;;;19.20;84.10;102306.00;4881725;29;20052;-65
2022/07/16 08:26:57;;;;;;;2.55;1.00;;;;;;;19.39;86.95;102310.97;4886798;29;20052;-65
2022/07/16 08:29:24;;;;;;;4.05;1.00;;;;;;;19.47;82.99;102310.13;4886675;29;20058;-65
2022/07/16 08:31:50;;;;;;;1.98;0.82;;;;;;;19.55;84.61;102310.94;4877625;29;20067;-64
2022/07/16 08:34:19;;;;;;;2.30;1.10;;;;;;;19.66;82.96;102315.09;4886070;29;20048;-65
2022/07/16 08:36:46;;;;;;;;;;;;;;;19.94;83.31;102325.34;4871546;29;20083;-65
2022/07/16 08:39:12;;;;;;;3.88;1.10;;;;;;;20.14;82.40;102313.28;4881989;29;19927;-65
2022/07/16 08:41:39;;;;;;;6.07;0.98;;;;;;;20.52;82.28;102326.75;4894711;29;20056;-65
2022/07/16 08:44:06;;;;;;;3.58;1.40;;;;;;;20.83;78.28;102325.06;4879890;29;20055;-64
2022/07/16 08:46:33;;;;;;;3.95;0.90;;;;;;;20.97;76.98;102328.78;4887732;29;20132;-64
2022/07/16 08:49:01;;;;;;;4.43;1.27;;;;;;;21.20;76.02;102324.25;4869458;29;20057;-65
2022/07/16 08:51:32;;;;;;;1.88;0.88;;;;;;;21.66;77.36;102337.53;4881743;29;20048;-65
2022/07/16 08:54:11;;;;;;;4.68;1.10;;;;;;;22.05;74.01;102347.13;4878747;29;20387;-65
2022/07/16 08:56:37;;;;;;;2.47;1.00;;;;;;;22.38;71.05;102348.56;4876451;29;20528;-65
2022/07/16 08:59:05;;;;;;;4.13;0.98;;;;;;;22.47;71.78;102350.13;4883513;29;20056;-65
2022/07/16 09:01:32;;;;;;;;;;;;;;;22.32;70.26;102360.81;4877761;29;20061;-65
2022/07/16 09:04:00;;;;;;;5.18;1.15;;;;;;;22.65;70.15;102352.34;4881016;29;19931;-66
2022/07/16 09:06:27;;;;;;;2.67;0.90;;;;;;;22.40;67.82;102355.38;4874377;29;20092;-65
2022/07/16 09:08:54;;;;;;;3.47;1.10;;;;;;;22.67;68.71;102358.34;4885967;29;20056;-65
2022/07/16 09:11:25;;;;;;;3.03;0.70;;;;;;;22.91;69.36;102351.78;4878743;29;20675;-65
2022/07/16 09:14:02;;;;;;;1.90;0.80;;;;;;;22.79;66.59;102364.03;4885462;29;20507;-65
2022/07/16 09:16:31;;;;;;;2.42;0.82;;;;;;;23.03;65.73;102366.38;4878322;29;20458;-65
2022/07/16 09:19:18;;;;;;;3.83;0.90;;;;;;;23.08;68.69;102369.28;4870889;29;20059;-65
2022/07/16 09:22:06;;;;;;;3.42;0.90;;;;;;;22.90;65.90;102383.06;4884647;29;20048;-65
2022/07/16 09:24:44;;;;;;;4.40;0.98;;;;;;;22.82;65.22;102374.34;4872280;29;20492;-65
2022/07/16 09:27:16;;;;;;;4.63;1.10;;;;;;;22.88;64.05;102376.25;4880594;29;20049;-65
2022/07/16 09:29:46;;;;;;;3.88;0.90;;;;;;;22.80;65.92;102384.41;4877236;29;20061;-65
2022/07/16 09:32:27;;;;;;;2.95;0.80;;;;;;;22.69;65.58;102378.53;4877891;29;20064;-65
2022/07/16 09:35:21;;;;;;;2.58;0.93;;;;;;;22.95;64.60;102379.81;4873465;29;20063;-65
2022/07/16 09:37:58;;;;;;;5.43;0.90;;;;;;;23.37;66.66;102388.88;4876339;29;20055;-65
2022/07/16 09:40:37;;;;;;;4.57;0.90;;;;;;;23.82;63.76;102388.63;4878191;29;20139;-64
2022/07/16 09:43:18;;;;;;;3.67;0.80;;;;;;;24.11;60.75;102382.19;4885538;29;20049;-65
2022/07/16 09:45:47;;;;;;;4.55;0.88;;;;;;;24.41;61.45;102381.91;4880142;29;20053;-65
2022/07/16 09:48:25;;;;;;;2.40;0.73;;;;;;;24.54;60.44;102381.97;4874731;29;20053;-66
2022/07/16 09:50:53;;;;;;;4.88;1.10;;;;;;;24.64;57.58;102389.63;4885919;29;20060;-65
2022/07/16 09:53:23;;;;;;;2.88;1.00;;;;;;;24.54;59.72;102389.16;4870084;29;20143;-65
2022/07/16 09:55:57;;;;;;;3.85;0.90;;;;;;;24.64;57.77;102386.94;4887683;29;20060;-65
2022/07/16 09:58:25;;;;;;;3.17;0.85;;;;;;;24.61;57.79;102381.97;4872459;29;20060;-65
2022/07/16 10:00:52;;;;;;;5.13;0.85;;;;;;;24.58;56.62;102385.06;4880256;29;20585;-65
2022/07/16 10:03:19;;;;;;;2.65;0.88;;;;;;;24.84;58.97;102382.44;4884566;29;20052;-65
2022/07/16 10:05:46;;;;;;;2.05;0.60;;;;;;;25.06;55.99;102398.38;4877615;29;20052;-65
2022/07/16 10:08:14;;;;;;;3.00;1.03;;;;;;;25.37;56.01;102400.47;4883735;29;20052;-66
2022/07/16 10:10:40;;;;;;;4.72;0.90;;;;;;;25.68;56.32;102401.69;4877593;29;20052;-65
2022/07/16 10:13:09;;;;;;;2.10;0.70;;;;;;;25.61;54.56;102399.00;4880837;29;20064;-64
2022/07/16 10:15:37;;;;;;;4.55;0.90;;;;;;;25.86;56.69;102414.47;4875956;29;20501;-65
2022/07/16 10:18:23;;;;;;;2.33;0.70;;;;;;;26.17;56.44;102416.50;4885454;29;20066;-65
2022/07/16 10:21:15;;;;;;;3.80;0.80;;;;;;;26.17;55.93;102416.50;4886899;29;20195;-65
2022/07/16 10:23:48;;;;;;;3.42;0.90;;;;;;;25.63;54.76;102402.31;4876209;29;20548;-65
2022/07/16 10:26:20;;;;;;;5.72;1.13;;;;;;;25.96;55.53;102412.22;4878947;29;20585;-66
2022/07/16 10:28:51;;;;;;;1.80;0.77;;;;;;;25.84;54.84;102414.69;4875278;29;20065;-66
2022/07/16 10:31:40;;;;;;;3.63;0.90;;;;;;;25.82;57.59;102422.13;4884207;29;20060;-66
2022/07/16 10:34:14;;;;;;;3.00;0.82;;;;;;;25.76;55.78;102419.47;4875589;29;20091;-65
2022/07/16 10:36:46;;;;;;;3.78;1.00;;;;;;;25.81;55.19;102425.84;4881084;29;20060;-65
2022/07/16 10:39:15;;;;;;;2.05;0.60;;;;;;;25.73;55.11;102422.56;4877679;29;20075;-65
2022/07/16 10:41:49;;;;;;;1.67;0.73;;;;;;;25.95;55.82;102424.00;4879880;29;20052;-66
2022/07/16 10:44:16;;;;;;;4.55;0.80;;;;;;;26.21;56.05;102431.16;4881851;29;20088;-65
2022/07/16 10:47:03;;;;;;;4.57;0.88;;;;;;;26.39;56.53;102430.47;4877116;29;20522;-65
2022/07/16 10:49:30;;;;;;;3.45;0.90;;;;;;;26.47;51.99;102433.97;4884110;29;20326;-65
2022/07/16 10:52:01;;;;;;;3.22;0.88;;;;;;;26.68;51.83;102428.31;4881416;29;20088;-64
2022/07/16 10:54:33;;;;;;;3.25;0.80;;;;;;;26.92;52.85;102433.97;4880812;29;20056;-66
2022/07/16 10:57:06;;;;;;;1.88;0.68;;;;;;;27.35;52.62;102436.78;4875954;29;20063;-66
2022/07/16 10:59:41;;;;;;;4.35;1.38;;;;;;;27.00;53.27;102431.00;4885435;29;20048;-66
2022/07/16 11:02:10;;;;;;;6.43;1.45;;;;;;;26.51;53.41;102440.56;4877554;29;20083;-65
2022/07/16 11:04:45;;;;;;;8.95;0.90;;;;;;;26.19;54.17;102445.88;4881992;29;20060;-66
2022/07/16 11:07:18;;;;;;;3.55;0.73;;;;;;;26.56;54.27;102441.59;4879903;29;20052;-65
2022/07/16 11:09:47;;;;;;;2.92;0.70;;;;;;;26.77;55.33;102437.75;4873582;29;20431;-67
2022/07/16 11:12:18;;;;;;;4.15;1.08;;;;;;;26.49;54.97;102448.84;4884828;29;20052;-67
2022/07/16 11:14:47;;;;;;;7.00;1.15;;;;;;;26.71;56.94;102446.69;4877027;29;20056;-66
2022/07/16 11:17:15;;;;;;;2.47;0.70;;;;;;;26.61;52.42;102447.16;4885295;29;20048;-66
2022/07/16 11:19:50;;;;;;;4.55;0.85;;;;;;;26.76;54.06;102448.78;4877987;29;20049;-67
2022/07/16 11:22:20;;;;;;;3.53;0.80;;;;;;;27.01;53.19;102448.81;4876940;29;20525;-66
2022/07/16 11:24:54;;;;;;;5.40;1.10;;;;;;;27.11;52.29;102457.25;4883605;29;20491;-66
2022/07/16 11:27:32;;;;;;;4.32;0.75;;;;;;;27.10;52.56;102452.91;4877343;29;20052;-66
2022/07/16 11:30:01;;;;;;;2.72;0.80;;;;;;;27.25;52.62;102449.06;4882149;29;20525;-66
2022/07/16 11:32:28;;;;;;;2.20;0.80;;;;;;;27.37;53.42;102450.03;4877364;29;20052;-66
2022/07/16 11:34:54;;;;;;;3.00;0.80;;;;;;;27.48;53.33;102453.88;4879305;29;20679;-65